ROMMA est une association bénévole à but non lucratif. Votre soutien est indispensable : ADHERER à ROMMA ou FAIRE un DON

Trept - (38, Isère)

Plateau de Crémieu (265 m)   Longitude: 5° 19' 27" E   Latitude: 45° 41' 15"N Station partenaire n°94
 

Détail journalier du     <<     >>

Température Precipitation Humidité Pression Vent Dir Rafale Dir. rafale
Heure (°C) (mm) (%) (hPa) (km/h) (km/h)
01:00 22.306510141NO6NE
02:00 21.207010141ENE5NE
03:00 21.007310131NE6NE
04:00 20.107710131NE5NE
05:00 20.707510121NE5NE
06:00 19.707810121NE5NO
07:00 19.008410131NNE5NNE
08:00 19.407510133NE16NO
09:00 20.906910133NNE15NE
10:00 21.306610144ONO15NO
11:00 24.205810143ONO13ONO
12:00 25.205610143NO15ONO
13:00 23.606010135NO18NNO
14:00 23.506210145NO23NO
15:00 23.905910144NO16NO
16:00 24.905710134NNE18NO
17:00 25.305610136NE23NO
18:00 23.605810135NNE19N
19:00 22.606110145NE21NNE
20:00 21.806310144NE18N
21:00 21.306510152N8NE
22:00 20.906710162NE11ONO
23:00 20.106910165NE21NNO
minuit 19.207210165NNE21NO

Graphique du 01-09-2019

 

Serveur OMMA